sensor_id;sensor_type;location;lat;lon;timestamp;temperature;humidity
6724;DHT22;3399;52.530;13.304;2022-12-16T00:00:12;-4.70;99.90
6724;DHT22;3399;52.530;13.304;2022-12-16T00:02:40;-4.70;99.90
6724;DHT22;3399;52.530;13.304;2022-12-16T00:05:06;-4.60;99.90
6724;DHT22;3399;52.530;13.304;2022-12-16T00:07:31;-4.70;99.90
6724;DHT22;3399;52.530;13.304;2022-12-16T00:09:57;-4.70;99.90
6724;DHT22;3399;52.530;13.304;2022-12-16T00:12:22;-4.70;99.90
6724;DHT22;3399;52.530;13.304;2022-12-16T00:14:48;-4.70;99.90
6724;DHT22;3399;52.530;13.304;2022-12-16T00:17:13;-4.70;99.90
6724;DHT22;3399;52.530;13.304;2022-12-16T00:19:39;-4.90;99.90
6724;DHT22;3399;52.530;13.304;2022-12-16T00:22:04;-4.80;99.90
6724;DHT22;3399;52.530;13.304;2022-12-16T00:24:30;-4.70;99.90
6724;DHT22;3399;52.530;13.304;2022-12-16T00:26:56;-4.80;99.90
6724;DHT22;3399;52.530;13.304;2022-12-16T00:29:21;-4.80;99.90
6724;DHT22;3399;52.530;13.304;2022-12-16T00:31:47;-4.80;99.90
6724;DHT22;3399;52.530;13.304;2022-12-16T00:34:15;-4.80;99.90
6724;DHT22;3399;52.530;13.304;2022-12-16T00:36:42;-4.80;99.90
6724;DHT22;3399;52.530;13.304;2022-12-16T00:39:08;-4.90;99.90
6724;DHT22;3399;52.530;13.304;2022-12-16T00:41:34;-4.80;99.90
6724;DHT22;3399;52.530;13.304;2022-12-16T00:43:59;-4.80;99.90
6724;DHT22;3399;52.530;13.304;2022-12-16T00:46:25;-4.70;99.90
6724;DHT22;3399;52.530;13.304;2022-12-16T00:48:50;-4.70;99.90
6724;DHT22;3399;52.530;13.304;2022-12-16T00:51:16;-4.80;99.90
6724;DHT22;3399;52.530;13.304;2022-12-16T00:53:41;-4.70;99.90
6724;DHT22;3399;52.530;13.304;2022-12-16T00:56:09;-4.60;99.90
6724;DHT22;3399;52.530;13.304;2022-12-16T00:58:35;-4.60;99.90
6724;DHT22;3399;52.530;13.304;2022-12-16T01:01:02;-4.60;99.90
6724;DHT22;3399;52.530;13.304;2022-12-16T01:03:27;-4.70;99.90
6724;DHT22;3399;52.530;13.304;2022-12-16T01:05:53;-4.70;99.90
6724;DHT22;3399;52.530;13.304;2022-12-16T01:08:18;-4.70;99.90
6724;DHT22;3399;52.530;13.304;2022-12-16T01:10:51;-4.70;99.90
6724;DHT22;3399;52.530;13.304;2022-12-16T01:13:18;-4.80;99.90
6724;DHT22;3399;52.530;13.304;2022-12-16T01:15:43;-4.90;99.90
6724;DHT22;3399;52.530;13.304;2022-12-16T01:18:09;-4.90;99.90
6724;DHT22;3399;52.530;13.304;2022-12-16T01:20:35;-5.00;99.90
6724;DHT22;3399;52.530;13.304;2022-12-16T01:23:00;-5.00;99.90
6724;DHT22;3399;52.530;13.304;2022-12-16T01:25:26;-5.00;99.90
6724;DHT22;3399;52.530;13.304;2022-12-16T01:27:51;-4.90;99.90
6724;DHT22;3399;52.530;13.304;2022-12-16T01:30:17;-5.00;99.90
6724;DHT22;3399;52.530;13.304;2022-12-16T01:32:42;-4.90;99.90
6724;DHT22;3399;52.530;13.304;2022-12-16T01:35:08;-4.90;99.90
6724;DHT22;3399;52.530;13.304;2022-12-16T01:37:34;-4.90;99.90
6724;DHT22;3399;52.530;13.304;2022-12-16T01:40:00;-4.90;99.90
6724;DHT22;3399;52.530;13.304;2022-12-16T01:42:25;-4.80;99.90
6724;DHT22;3399;52.530;13.304;2022-12-16T01:44:55;-4.90;99.90
6724;DHT22;3399;52.530;13.304;2022-12-16T01:47:27;-4.90;99.90
6724;DHT22;3399;52.530;13.304;2022-12-16T01:50:01;-4.90;99.90
6724;DHT22;3399;52.530;13.304;2022-12-16T01:52:32;-5.00;99.90
6724;DHT22;3399;52.530;13.304;2022-12-16T01:55:02;-5.00;99.90
6724;DHT22;3399;52.530;13.304;2022-12-16T01:57:35;-5.00;99.90
6724;DHT22;3399;52.530;13.304;2022-12-16T02:00:03;-5.00;99.90
6724;DHT22;3399;52.530;13.304;2022-12-16T02:02:30;-5.00;99.90
6724;DHT22;3399;52.530;13.304;2022-12-16T02:04:56;-5.00;99.90
6724;DHT22;3399;52.530;13.304;2022-12-16T02:07:40;-5.00;99.90
6724;DHT22;3399;52.530;13.304;2022-12-16T02:10:06;-5.10;99.90
6724;DHT22;3399;52.530;13.304;2022-12-16T02:12:44;-5.20;99.90
6724;DHT22;3399;52.530;13.304;2022-12-16T02:15:30;-5.30;99.90
6724;DHT22;3399;52.530;13.304;2022-12-16T02:18:15;-5.30;99.90
6724;DHT22;3399;52.530;13.304;2022-12-16T02:20:57;-5.40;99.90
6724;DHT22;3399;52.530;13.304;2022-12-16T02:23:50;-5.40;99.90
6724;DHT22;3399;52.530;13.304;2022-12-16T02:26:53;-5.40;99.90
6724;DHT22;3399;52.530;13.304;2022-12-16T02:32:19;-5.50;99.90
6724;DHT22;3399;52.530;13.304;2022-12-16T02:38:13;-5.50;99.90
6724;DHT22;3399;52.530;13.304;2022-12-16T02:40:45;-5.50;99.90
6724;DHT22;3399;52.530;13.304;2022-12-16T02:43:33;-5.50;99.90
6724;DHT22;3399;52.530;13.304;2022-12-16T02:46:01;-5.50;99.90
6724;DHT22;3399;52.530;13.304;2022-12-16T02:48:28;-5.50;99.90
6724;DHT22;3399;52.530;13.304;2022-12-16T02:50:53;-5.50;99.90
6724;DHT22;3399;52.530;13.304;2022-12-16T02:53:19;-5.50;99.90
6724;DHT22;3399;52.530;13.304;2022-12-16T02:55:54;-5.50;99.90
6724;DHT22;3399;52.530;13.304;2022-12-16T02:58:42;-5.60;99.90
6724;DHT22;3399;52.530;13.304;2022-12-16T03:01:21;-5.60;99.90
6724;DHT22;3399;52.530;13.304;2022-12-16T03:04:01;-5.60;99.90
6724;DHT22;3399;52.530;13.304;2022-12-16T03:06:29;-5.60;99.90
6724;DHT22;3399;52.530;13.304;2022-12-16T03:08:59;-5.70;99.90
6724;DHT22;3399;52.530;13.304;2022-12-16T03:11:27;-5.80;99.90
6724;DHT22;3399;52.530;13.304;2022-12-16T03:13:54;-5.80;99.90
6724;DHT22;3399;52.530;13.304;2022-12-16T03:16:25;-5.80;99.90
6724;DHT22;3399;52.530;13.304;2022-12-16T03:18:54;-5.80;99.90
6724;DHT22;3399;52.530;13.304;2022-12-16T03:21:21;-5.80;99.90
6724;DHT22;3399;52.530;13.304;2022-12-16T03:23:56;-5.70;99.90
6724;DHT22;3399;52.530;13.304;2022-12-16T03:26:34;-5.60;99.90
6724;DHT22;3399;52.530;13.304;2022-12-16T03:29:09;-5.60;99.90
6724;DHT22;3399;52.530;13.304;2022-12-16T03:31:41;-5.60;99.90
6724;DHT22;3399;52.530;13.304;2022-12-16T03:36:53;-5.70;99.90
6724;DHT22;3399;52.530;13.304;2022-12-16T03:39:21;-5.70;99.90
6724;DHT22;3399;52.530;13.304;2022-12-16T03:41:50;-5.70;99.90
6724;DHT22;3399;52.530;13.304;2022-12-16T03:44:19;-5.80;99.90
6724;DHT22;3399;52.530;13.304;2022-12-16T03:46:46;-5.80;99.90
6724;DHT22;3399;52.530;13.304;2022-12-16T03:49:12;-5.90;99.90
6724;DHT22;3399;52.530;13.304;2022-12-16T03:51:37;-5.90;99.90
6724;DHT22;3399;52.530;13.304;2022-12-16T03:54:03;-5.90;99.90
6724;DHT22;3399;52.530;13.304;2022-12-16T03:56:28;-5.90;99.90
6724;DHT22;3399;52.530;13.304;2022-12-16T03:58:54;-6.00;99.90
6724;DHT22;3399;52.530;13.304;2022-12-16T04:01:19;-6.00;99.90
6724;DHT22;3399;52.530;13.304;2022-12-16T04:03:45;-6.10;99.90
6724;DHT22;3399;52.530;13.304;2022-12-16T04:06:10;-6.00;99.90
6724;DHT22;3399;52.530;13.304;2022-12-16T04:08:36;-6.10;99.90
6724;DHT22;3399;52.530;13.304;2022-12-16T04:11:01;-6.00;99.90
6724;DHT22;3399;52.530;13.304;2022-12-16T04:13:46;-6.00;99.90
6724;DHT22;3399;52.530;13.304;2022-12-16T04:16:30;-6.00;99.90
6724;DHT22;3399;52.530;13.304;2022-12-16T04:19:21;-6.00;99.90
6724;DHT22;3399;52.530;13.304;2022-12-16T04:22:16;-6.00;99.90
6724;DHT22;3399;52.530;13.304;2022-12-16T04:25:08;-6.00;99.90
6724;DHT22;3399;52.530;13.304;2022-12-16T04:27:34;-6.00;99.90
6724;DHT22;3399;52.530;13.304;2022-12-16T04:30:00;-6.00;99.90
6724;DHT22;3399;52.530;13.304;2022-12-16T04:32:44;-6.00;99.90
6724;DHT22;3399;52.530;13.304;2022-12-16T04:35:28;-6.00;99.90
6724;DHT22;3399;52.530;13.304;2022-12-16T04:38:12;-6.00;99.90
6724;DHT22;3399;52.530;13.304;2022-12-16T04:40:56;-6.00;99.90
6724;DHT22;3399;52.530;13.304;2022-12-16T04:43:40;-6.00;99.90
6724;DHT22;3399;52.530;13.304;2022-12-16T04:46:24;-6.10;99.90
6724;DHT22;3399;52.530;13.304;2022-12-16T04:49:08;-6.10;99.90
6724;DHT22;3399;52.530;13.304;2022-12-16T04:51:52;-6.20;99.90
6724;DHT22;3399;52.530;13.304;2022-12-16T04:54:36;-6.20;99.90
6724;DHT22;3399;52.530;13.304;2022-12-16T04:57:20;-6.20;99.90
6724;DHT22;3399;52.530;13.304;2022-12-16T05:00:05;-6.20;99.90
6724;DHT22;3399;52.530;13.304;2022-12-16T05:02:49;-6.20;99.90
6724;DHT22;3399;52.530;13.304;2022-12-16T05:05:33;-6.20;99.90
6724;DHT22;3399;52.530;13.304;2022-12-16T05:08:17;-6.20;99.90
6724;DHT22;3399;52.530;13.304;2022-12-16T05:11:01;-6.30;99.90
6724;DHT22;3399;52.530;13.304;2022-12-16T05:13:53;-6.20;99.90
6724;DHT22;3399;52.530;13.304;2022-12-16T05:16:37;-6.20;99.90
6724;DHT22;3399;52.530;13.304;2022-12-16T05:19:21;-6.20;99.90
6724;DHT22;3399;52.530;13.304;2022-12-16T05:22:05;-6.20;99.90
6724;DHT22;3399;52.530;13.304;2022-12-16T05:24:49;-6.20;99.90
6724;DHT22;3399;52.530;13.304;2022-12-16T05:27:33;-6.20;99.90
6724;DHT22;3399;52.530;13.304;2022-12-16T05:30:17;-6.20;99.90
6724;DHT22;3399;52.530;13.304;2022-12-16T05:33:01;-6.20;99.90
6724;DHT22;3399;52.530;13.304;2022-12-16T05:35:45;-6.20;99.90
6724;DHT22;3399;52.530;13.304;2022-12-16T05:38:29;-6.20;99.90
6724;DHT22;3399;52.530;13.304;2022-12-16T05:41:14;-6.20;99.90
6724;DHT22;3399;52.530;13.304;2022-12-16T05:43:58;-6.20;99.90
6724;DHT22;3399;52.530;13.304;2022-12-16T05:46:43;-6.20;99.90
6724;DHT22;3399;52.530;13.304;2022-12-16T05:49:28;-6.20;99.90
6724;DHT22;3399;52.530;13.304;2022-12-16T05:52:12;-6.20;99.90
6724;DHT22;3399;52.530;13.304;2022-12-16T05:54:56;-6.20;99.90
6724;DHT22;3399;52.530;13.304;2022-12-16T05:57:40;-6.20;99.90
6724;DHT22;3399;52.530;13.304;2022-12-16T06:00:24;-6.20;99.90
6724;DHT22;3399;52.530;13.304;2022-12-16T06:03:08;-6.20;99.90
6724;DHT22;3399;52.530;13.304;2022-12-16T06:05:52;-6.20;99.90
6724;DHT22;3399;52.530;13.304;2022-12-16T06:08:36;-6.20;99.90
6724;DHT22;3399;52.530;13.304;2022-12-16T06:11:20;-6.20;99.90
6724;DHT22;3399;52.530;13.304;2022-12-16T06:14:04;-6.20;99.90
6724;DHT22;3399;52.530;13.304;2022-12-16T06:16:49;-6.20;99.90
6724;DHT22;3399;52.530;13.304;2022-12-16T06:19:33;-6.20;99.90
6724;DHT22;3399;52.530;13.304;2022-12-16T06:22:17;-6.30;99.90
6724;DHT22;3399;52.530;13.304;2022-12-16T06:25:01;-6.30;99.90
6724;DHT22;3399;52.530;13.304;2022-12-16T06:27:51;-6.20;99.90
6724;DHT22;3399;52.530;13.304;2022-12-16T06:30:35;-6.20;99.90
6724;DHT22;3399;52.530;13.304;2022-12-16T06:33:19;-6.20;99.90
6724;DHT22;3399;52.530;13.304;2022-12-16T06:36:04;-6.20;99.90
6724;DHT22;3399;52.530;13.304;2022-12-16T06:38:48;-6.20;99.90
6724;DHT22;3399;52.530;13.304;2022-12-16T06:41:32;-6.20;99.90
6724;DHT22;3399;52.530;13.304;2022-12-16T06:44:16;-6.20;99.90
6724;DHT22;3399;52.530;13.304;2022-12-16T06:47:00;-6.20;99.90
6724;DHT22;3399;52.530;13.304;2022-12-16T06:49:44;-6.20;99.90
6724;DHT22;3399;52.530;13.304;2022-12-16T06:52:28;-6.20;99.90
6724;DHT22;3399;52.530;13.304;2022-12-16T06:55:12;-6.30;99.90
6724;DHT22;3399;52.530;13.304;2022-12-16T06:58:00;-6.20;99.90
6724;DHT22;3399;52.530;13.304;2022-12-16T07:00:45;-6.20;99.90
6724;DHT22;3399;52.530;13.304;2022-12-16T07:03:29;-6.20;99.90
6724;DHT22;3399;52.530;13.304;2022-12-16T07:06:13;-6.20;99.90
6724;DHT22;3399;52.530;13.304;2022-12-16T07:08:58;-6.20;99.90
6724;DHT22;3399;52.530;13.304;2022-12-16T07:11:42;-6.20;99.90
6724;DHT22;3399;52.530;13.304;2022-12-16T07:14:26;-6.20;99.90
6724;DHT22;3399;52.530;13.304;2022-12-16T07:17:10;-6.20;99.90
6724;DHT22;3399;52.530;13.304;2022-12-16T07:19:54;-6.20;99.90
6724;DHT22;3399;52.530;13.304;2022-12-16T07:22:42;-6.20;99.90
6724;DHT22;3399;52.530;13.304;2022-12-16T07:25:30;-6.20;99.90
6724;DHT22;3399;52.530;13.304;2022-12-16T07:28:14;-6.10;99.90
6724;DHT22;3399;52.530;13.304;2022-12-16T07:30:58;-6.10;99.90
6724;DHT22;3399;52.530;13.304;2022-12-16T07:33:42;-6.00;99.90
6724;DHT22;3399;52.530;13.304;2022-12-16T07:36:26;-6.00;99.90
6724;DHT22;3399;52.530;13.304;2022-12-16T07:39:10;-6.00;99.90
6724;DHT22;3399;52.530;13.304;2022-12-16T07:41:54;-6.00;99.90
6724;DHT22;3399;52.530;13.304;2022-12-16T07:44:38;-6.00;99.90
6724;DHT22;3399;52.530;13.304;2022-12-16T07:47:22;-6.00;99.90
6724;DHT22;3399;52.530;13.304;2022-12-16T07:50:07;-6.00;99.90
6724;DHT22;3399;52.530;13.304;2022-12-16T07:52:58;-6.00;99.90
6724;DHT22;3399;52.530;13.304;2022-12-16T07:55:43;-6.00;99.90
6724;DHT22;3399;52.530;13.304;2022-12-16T07:58:27;-6.00;99.90
6724;DHT22;3399;52.530;13.304;2022-12-16T08:01:12;-6.00;99.90
6724;DHT22;3399;52.530;13.304;2022-12-16T08:03:55;-5.90;99.90
6724;DHT22;3399;52.530;13.304;2022-12-16T08:06:40;-5.90;99.90
6724;DHT22;3399;52.530;13.304;2022-12-16T08:09:24;-5.80;99.90
6724;DHT22;3399;52.530;13.304;2022-12-16T08:12:08;-5.80;99.90
6724;DHT22;3399;52.530;13.304;2022-12-16T08:14:52;-5.80;99.90
6724;DHT22;3399;52.530;13.304;2022-12-16T08:17:36;-5.70;99.90
6724;DHT22;3399;52.530;13.304;2022-12-16T08:20:20;-5.70;99.90
6724;DHT22;3399;52.530;13.304;2022-12-16T08:23:04;-5.70;99.90
6724;DHT22;3399;52.530;13.304;2022-12-16T08:25:48;-5.60;99.90
6724;DHT22;3399;52.530;13.304;2022-12-16T08:28:33;-5.60;99.90
6724;DHT22;3399;52.530;13.304;2022-12-16T08:31:18;-5.50;99.90
6724;DHT22;3399;52.530;13.304;2022-12-16T08:34:02;-5.50;99.90
6724;DHT22;3399;52.530;13.304;2022-12-16T08:36:46;-5.40;99.90
6724;DHT22;3399;52.530;13.304;2022-12-16T08:39:30;-5.20;99.90
6724;DHT22;3399;52.530;13.304;2022-12-16T08:42:14;-5.10;99.90
6724;DHT22;3399;52.530;13.304;2022-12-16T08:44:58;-5.00;99.90
6724;DHT22;3399;52.530;13.304;2022-12-16T08:47:42;-4.80;99.90
6724;DHT22;3399;52.530;13.304;2022-12-16T08:50:26;-4.70;99.90
6724;DHT22;3399;52.530;13.304;2022-12-16T08:53:10;-4.50;99.90
6724;DHT22;3399;52.530;13.304;2022-12-16T08:55:55;-4.30;99.90
6724;DHT22;3399;52.530;13.304;2022-12-16T08:58:39;-4.10;99.90
6724;DHT22;3399;52.530;13.304;2022-12-16T09:01:23;-4.00;99.90
6724;DHT22;3399;52.530;13.304;2022-12-16T09:04:07;-3.80;99.90
6724;DHT22;3399;52.530;13.304;2022-12-16T09:06:51;-3.70;99.90
6724;DHT22;3399;52.530;13.304;2022-12-16T09:09:35;-3.70;99.90
6724;DHT22;3399;52.530;13.304;2022-12-16T09:12:20;-3.60;99.90
6724;DHT22;3399;52.530;13.304;2022-12-16T09:15:04;-3.60;99.90
6724;DHT22;3399;52.530;13.304;2022-12-16T09:17:54;-3.60;99.90
6724;DHT22;3399;52.530;13.304;2022-12-16T09:20:39;-3.70;99.90
6724;DHT22;3399;52.530;13.304;2022-12-16T09:23:23;-3.60;99.90
6724;DHT22;3399;52.530;13.304;2022-12-16T09:26:07;-3.50;99.90
6724;DHT22;3399;52.530;13.304;2022-12-16T09:28:51;-3.50;99.90
6724;DHT22;3399;52.530;13.304;2022-12-16T09:31:35;-3.40;99.90
6724;DHT22;3399;52.530;13.304;2022-12-16T09:34:19;-3.30;99.90
6724;DHT22;3399;52.530;13.304;2022-12-16T09:37:03;-3.10;99.90
6724;DHT22;3399;52.530;13.304;2022-12-16T09:39:48;-3.00;99.90
6724;DHT22;3399;52.530;13.304;2022-12-16T09:42:48;-2.90;99.90
6724;DHT22;3399;52.530;13.304;2022-12-16T09:51:46;-2.30;99.90
6724;DHT22;3399;52.530;13.304;2022-12-16T09:54:33;-2.20;99.90
6724;DHT22;3399;52.530;13.304;2022-12-16T09:57:19;-2.20;99.90
6724;DHT22;3399;52.530;13.304;2022-12-16T10:00:21;-2.10;99.90
6724;DHT22;3399;52.530;13.304;2022-12-16T10:03:31;-2.10;99.90
6724;DHT22;3399;52.530;13.304;2022-12-16T10:09:24;-1.90;99.90
6724;DHT22;3399;52.530;13.304;2022-12-16T10:15:15;-1.70;99.90
6724;DHT22;3399;52.530;13.304;2022-12-16T10:18:16;-1.60;99.90
6724;DHT22;3399;52.530;13.304;2022-12-16T10:21:04;-1.50;99.90
6724;DHT22;3399;52.530;13.304;2022-12-16T10:24:08;-1.40;99.90
6724;DHT22;3399;52.530;13.304;2022-12-16T10:27:00;-1.30;99.90
6724;DHT22;3399;52.530;13.304;2022-12-16T10:29:45;-1.30;99.90
6724;DHT22;3399;52.530;13.304;2022-12-16T10:32:43;-1.20;99.90
6724;DHT22;3399;52.530;13.304;2022-12-16T10:35:50;-1.20;99.90
6724;DHT22;3399;52.530;13.304;2022-12-16T10:38:53;-1.10;99.90
6724;DHT22;3399;52.530;13.304;2022-12-16T10:41:41;-1.10;99.90
6724;DHT22;3399;52.530;13.304;2022-12-16T10:44:32;-1.20;99.90
6724;DHT22;3399;52.530;13.304;2022-12-16T10:47:18;-1.10;99.90
6724;DHT22;3399;52.530;13.304;2022-12-16T10:50:02;-1.10;99.90
6724;DHT22;3399;52.530;13.304;2022-12-16T10:52:56;-1.10;99.90
6724;DHT22;3399;52.530;13.304;2022-12-16T10:58:54;-1.30;99.90
6724;DHT22;3399;52.530;13.304;2022-12-16T11:01:39;-1.10;99.90
6724;DHT22;3399;52.530;13.304;2022-12-16T11:04:36;-1.00;99.90
6724;DHT22;3399;52.530;13.304;2022-12-16T11:07:51;-1.00;99.90
6724;DHT22;3399;52.530;13.304;2022-12-16T11:10:38;-0.90;99.90
6724;DHT22;3399;52.530;13.304;2022-12-16T11:13:25;-0.90;99.90
6724;DHT22;3399;52.530;13.304;2022-12-16T11:18:53;-0.80;99.90
6724;DHT22;3399;52.530;13.304;2022-12-16T11:21:37;-1.00;99.90
6724;DHT22;3399;52.530;13.304;2022-12-16T11:24:21;-0.90;99.90
6724;DHT22;3399;52.530;13.304;2022-12-16T11:27:13;-0.70;99.90
6724;DHT22;3399;52.530;13.304;2022-12-16T11:30:01;-0.60;99.90
6724;DHT22;3399;52.530;13.304;2022-12-16T11:32:51;-0.40;99.90
6724;DHT22;3399;52.530;13.304;2022-12-16T11:35:40;-0.30;99.90
6724;DHT22;3399;52.530;13.304;2022-12-16T11:38:41;-0.20;99.90
6724;DHT22;3399;52.530;13.304;2022-12-16T11:41:51;-0.10;99.90
6724;DHT22;3399;52.530;13.304;2022-12-16T11:44:38;0.00;99.90
6724;DHT22;3399;52.530;13.304;2022-12-16T11:47:37;0.10;99.90
6724;DHT22;3399;52.530;13.304;2022-12-16T11:50:24;0.10;99.90
6724;DHT22;3399;52.530;13.304;2022-12-16T11:56:14;0.10;99.90
6724;DHT22;3399;52.530;13.304;2022-12-16T11:59:03;0.10;99.90
6724;DHT22;3399;52.530;13.304;2022-12-16T12:01:55;-0.10;99.90
6724;DHT22;3399;52.530;13.304;2022-12-16T12:04:41;-0.20;99.90
6724;DHT22;3399;52.530;13.304;2022-12-16T12:08:06;-0.20;99.90
6724;DHT22;3399;52.530;13.304;2022-12-16T12:11:03;-0.20;99.90
6724;DHT22;3399;52.530;13.304;2022-12-16T12:13:51;-0.20;99.90
6724;DHT22;3399;52.530;13.304;2022-12-16T12:16:42;-0.20;99.90
6724;DHT22;3399;52.530;13.304;2022-12-16T12:22:34;-0.50;99.90
6724;DHT22;3399;52.530;13.304;2022-12-16T12:25:24;-0.50;99.90
6724;DHT22;3399;52.530;13.304;2022-12-16T12:28:22;-0.50;99.90
6724;DHT22;3399;52.530;13.304;2022-12-16T12:31:33;-0.50;99.90
6724;DHT22;3399;52.530;13.304;2022-12-16T12:37:38;-0.40;99.90
6724;DHT22;3399;52.530;13.304;2022-12-16T12:40:38;-0.50;99.90
6724;DHT22;3399;52.530;13.304;2022-12-16T12:43:53;-0.50;99.90
6724;DHT22;3399;52.530;13.304;2022-12-16T12:46:48;-0.60;99.90
6724;DHT22;3399;52.530;13.304;2022-12-16T12:52:49;-0.60;99.90
6724;DHT22;3399;52.530;13.304;2022-12-16T12:59:02;-0.50;99.90
6724;DHT22;3399;52.530;13.304;2022-12-16T13:01:48;-0.50;99.90
6724;DHT22;3399;52.530;13.304;2022-12-16T13:04:33;-0.50;99.90
6724;DHT22;3399;52.530;13.304;2022-12-16T13:07:17;-0.70;99.90
6724;DHT22;3399;52.530;13.304;2022-12-16T13:16:03;-0.70;99.90
6724;DHT22;3399;52.530;13.304;2022-12-16T13:18:47;-0.70;99.90
6724;DHT22;3399;52.530;13.304;2022-12-16T13:27:11;-0.70;99.90
6724;DHT22;3399;52.530;13.304;2022-12-16T13:33:04;-0.90;99.90
6724;DHT22;3399;52.530;13.304;2022-12-16T13:35:57;-0.90;99.90
6724;DHT22;3399;52.530;13.304;2022-12-16T13:38:56;-0.90;99.90
6724;DHT22;3399;52.530;13.304;2022-12-16T13:47:31;-0.70;99.90
6724;DHT22;3399;52.530;13.304;2022-12-16T13:50:38;-0.70;99.90
6724;DHT22;3399;52.530;13.304;2022-12-16T13:53:31;-0.70;99.90
6724;DHT22;3399;52.530;13.304;2022-12-16T13:56:22;-0.80;99.90
6724;DHT22;3399;52.530;13.304;2022-12-16T13:59:17;-0.80;99.90
6724;DHT22;3399;52.530;13.304;2022-12-16T14:08:04;-0.90;99.90
6724;DHT22;3399;52.530;13.304;2022-12-16T14:10:56;-1.00;99.90
6724;DHT22;3399;52.530;13.304;2022-12-16T14:13:48;-1.10;99.90
6724;DHT22;3399;52.530;13.304;2022-12-16T14:16:39;-1.10;99.90
6724;DHT22;3399;52.530;13.304;2022-12-16T14:25:30;-1.20;99.90
6724;DHT22;3399;52.530;13.304;2022-12-16T14:28:35;-1.30;99.90
6724;DHT22;3399;52.530;13.304;2022-12-16T14:31:28;-1.40;99.90
6724;DHT22;3399;52.530;13.304;2022-12-16T14:34:25;-1.50;99.90
6724;DHT22;3399;52.530;13.304;2022-12-16T14:37:14;-1.50;99.90
6724;DHT22;3399;52.530;13.304;2022-12-16T14:39:58;-1.50;99.90
6724;DHT22;3399;52.530;13.304;2022-12-16T14:42:42;-1.50;99.90
6724;DHT22;3399;52.530;13.304;2022-12-16T14:45:35;-1.60;99.90
6724;DHT22;3399;52.530;13.304;2022-12-16T14:48:33;-1.50;99.90
6724;DHT22;3399;52.530;13.304;2022-12-16T14:51:30;-1.50;99.90
6724;DHT22;3399;52.530;13.304;2022-12-16T14:54:24;-1.60;99.90
6724;DHT22;3399;52.530;13.304;2022-12-16T14:57:15;-1.50;99.90
6724;DHT22;3399;52.530;13.304;2022-12-16T15:02:46;-1.50;99.90
6724;DHT22;3399;52.530;13.304;2022-12-16T15:05:33;-1.40;99.90
6724;DHT22;3399;52.530;13.304;2022-12-16T15:08:20;-1.50;99.90
6724;DHT22;3399;52.530;13.304;2022-12-16T15:11:05;-1.40;99.90
6724;DHT22;3399;52.530;13.304;2022-12-16T15:13:55;-1.50;99.90
6724;DHT22;3399;52.530;13.304;2022-12-16T15:16:41;-1.50;99.90
6724;DHT22;3399;52.530;13.304;2022-12-16T15:19:26;-1.50;99.90
6724;DHT22;3399;52.530;13.304;2022-12-16T15:22:14;-1.40;99.90
6724;DHT22;3399;52.530;13.304;2022-12-16T15:24:59;-1.50;99.90
6724;DHT22;3399;52.530;13.304;2022-12-16T15:27:55;-1.60;99.90
6724;DHT22;3399;52.530;13.304;2022-12-16T15:30:45;-1.70;99.90
6724;DHT22;3399;52.530;13.304;2022-12-16T15:33:33;-1.70;99.90
6724;DHT22;3399;52.530;13.304;2022-12-16T15:39:16;-1.60;99.90
6724;DHT22;3399;52.530;13.304;2022-12-16T15:42:01;-1.60;99.90
6724;DHT22;3399;52.530;13.304;2022-12-16T15:44:48;-1.50;99.90
6724;DHT22;3399;52.530;13.304;2022-12-16T15:47:36;-1.50;99.90
6724;DHT22;3399;52.530;13.304;2022-12-16T15:50:24;-1.40;99.90
6724;DHT22;3399;52.530;13.304;2022-12-16T15:53:32;-1.30;99.90
6724;DHT22;3399;52.530;13.304;2022-12-16T15:56:32;-1.30;99.90
6724;DHT22;3399;52.530;13.304;2022-12-16T15:59:28;-1.30;99.90
6724;DHT22;3399;52.530;13.304;2022-12-16T16:02:26;-1.30;99.90
6724;DHT22;3399;52.530;13.304;2022-12-16T16:05:32;-1.20;99.90
6724;DHT22;3399;52.530;13.304;2022-12-16T16:08:16;-1.20;99.90
6724;DHT22;3399;52.530;13.304;2022-12-16T16:11:00;-1.20;99.90
6724;DHT22;3399;52.530;13.304;2022-12-16T16:13:44;-1.20;99.90
6724;DHT22;3399;52.530;13.304;2022-12-16T16:16:29;-1.10;99.90
6724;DHT22;3399;52.530;13.304;2022-12-16T16:19:23;-1.10;99.90
6724;DHT22;3399;52.530;13.304;2022-12-16T16:22:12;-1.10;99.90
6724;DHT22;3399;52.530;13.304;2022-12-16T16:24:57;-1.10;99.90
6724;DHT22;3399;52.530;13.304;2022-12-16T16:27:41;-1.20;99.90
6724;DHT22;3399;52.530;13.304;2022-12-16T16:30:25;-1.10;99.90
6724;DHT22;3399;52.530;13.304;2022-12-16T16:33:09;-1.00;99.90
6724;DHT22;3399;52.530;13.304;2022-12-16T16:35:53;-1.00;99.90
6724;DHT22;3399;52.530;13.304;2022-12-16T16:38:37;-1.00;99.90
6724;DHT22;3399;52.530;13.304;2022-12-16T16:41:21;-1.10;99.90
6724;DHT22;3399;52.530;13.304;2022-12-16T16:44:05;-1.20;99.90
6724;DHT22;3399;52.530;13.304;2022-12-16T16:46:49;-1.20;99.90
6724;DHT22;3399;52.530;13.304;2022-12-16T16:49:43;-1.20;99.90
6724;DHT22;3399;52.530;13.304;2022-12-16T16:52:29;-1.20;99.90
6724;DHT22;3399;52.530;13.304;2022-12-16T16:55:21;-1.20;99.90
6724;DHT22;3399;52.530;13.304;2022-12-16T16:58:11;-1.20;99.90
6724;DHT22;3399;52.530;13.304;2022-12-16T17:00:56;-1.20;99.90
6724;DHT22;3399;52.530;13.304;2022-12-16T17:03:40;-1.30;99.90
6724;DHT22;3399;52.530;13.304;2022-12-16T17:06:24;-1.30;99.90
6724;DHT22;3399;52.530;13.304;2022-12-16T17:09:08;-1.30;99.90
6724;DHT22;3399;52.530;13.304;2022-12-16T17:11:52;-1.50;99.90
6724;DHT22;3399;52.530;13.304;2022-12-16T17:14:36;-1.50;99.90
6724;DHT22;3399;52.530;13.304;2022-12-16T17:17:21;-1.60;99.90
6724;DHT22;3399;52.530;13.304;2022-12-16T17:20:05;-1.60;99.90
6724;DHT22;3399;52.530;13.304;2022-12-16T17:22:50;-1.60;99.90
6724;DHT22;3399;52.530;13.304;2022-12-16T17:25:41;-1.60;99.90
6724;DHT22;3399;52.530;13.304;2022-12-16T17:28:26;-1.70;99.90
6724;DHT22;3399;52.530;13.304;2022-12-16T17:31:10;-1.70;99.90
6724;DHT22;3399;52.530;13.304;2022-12-16T17:33:54;-1.70;99.90
6724;DHT22;3399;52.530;13.304;2022-12-16T17:36:38;-1.60;99.90
6724;DHT22;3399;52.530;13.304;2022-12-16T17:39:22;-1.60;99.90
6724;DHT22;3399;52.530;13.304;2022-12-16T17:42:07;-1.60;99.90
6724;DHT22;3399;52.530;13.304;2022-12-16T17:44:50;-1.50;99.90
6724;DHT22;3399;52.530;13.304;2022-12-16T17:47:35;-1.50;99.90
6724;DHT22;3399;52.530;13.304;2022-12-16T17:50:19;-1.50;99.90
6724;DHT22;3399;52.530;13.304;2022-12-16T17:53:03;-1.50;99.90
6724;DHT22;3399;52.530;13.304;2022-12-16T17:55:47;-1.50;99.90
6724;DHT22;3399;52.530;13.304;2022-12-16T17:58:36;-1.50;99.90
6724;DHT22;3399;52.530;13.304;2022-12-16T18:01:22;-1.50;99.90
6724;DHT22;3399;52.530;13.304;2022-12-16T18:04:06;-1.30;99.90
6724;DHT22;3399;52.530;13.304;2022-12-16T18:06:51;-1.30;99.90
6724;DHT22;3399;52.530;13.304;2022-12-16T18:09:35;-1.30;99.90
6724;DHT22;3399;52.530;13.304;2022-12-16T18:12:20;-1.20;99.90
6724;DHT22;3399;52.530;13.304;2022-12-16T18:15:04;-1.20;99.90
6724;DHT22;3399;52.530;13.304;2022-12-16T18:17:48;-1.20;99.90
6724;DHT22;3399;52.530;13.304;2022-12-16T18:20:33;-1.20;99.90
6724;DHT22;3399;52.530;13.304;2022-12-16T18:23:18;-1.10;99.90
6724;DHT22;3399;52.530;13.304;2022-12-16T18:26:04;-1.20;99.90
6724;DHT22;3399;52.530;13.304;2022-12-16T18:28:49;-1.20;99.90
6724;DHT22;3399;52.530;13.304;2022-12-16T18:31:33;-1.20;99.90
6724;DHT22;3399;52.530;13.304;2022-12-16T18:34:17;-1.20;99.90
6724;DHT22;3399;52.530;13.304;2022-12-16T18:37:02;-1.30;99.90
6724;DHT22;3399;52.530;13.304;2022-12-16T18:39:46;-1.40;99.90
6724;DHT22;3399;52.530;13.304;2022-12-16T18:42:30;-1.40;99.90
6724;DHT22;3399;52.530;13.304;2022-12-16T18:45:15;-1.40;99.90
6724;DHT22;3399;52.530;13.304;2022-12-16T18:47:59;-1.50;99.90